Time;durP1;ratioP1;P1;durP2;ratioP2;P2;SDS_P1;SDS_P2;PMS_P1;PMS_P2;Temp;Humidity;BMP_temperature;BMP_pressure;BME280_temperature;BME280_humidity;BME280_pressure;Samples;Min_cycle;Max_cycle;Signal;HPM_P1;HPM_P2
2024/01/29 13:30:02;;;;;;;7.00;2.67;;;26.60;53.90;;;;;;4996059;28;20523;-88
2024/01/29 13:32:30;;;;;;;7.80;2.43;;;26.60;53.00;;;;;;4997445;28;20436;-84
2024/01/29 13:34:57;;;;;;;8.90;2.63;;;26.60;53.20;;;;;;5003794;28;20443;-83
2024/01/29 13:37:24;;;;;;;10.23;2.70;;;26.50;52.60;;;;;;5025917;28;20446;-89
2024/01/29 13:39:51;;;;;;;8.23;2.60;;;26.50;53.30;;;;;;5037993;28;20466;-89
2024/01/29 19:54:49;;;;;;;7.10;3.00;;;25.60;53.90;;;;;;4994822;28;20434;-91
2024/01/29 19:57:16;;;;;;;4.63;2.50;;;25.60;54.00;;;;;;5001516;28;20462;-85
2024/01/29 19:59:43;;;;;;;5.87;2.37;;;25.50;53.80;;;;;;4999455;28;20432;-86
2024/01/29 20:02:09;;;;;;;3.43;2.30;;;25.50;53.90;;;;;;5000700;28;20437;-87
2024/01/29 20:04:37;;;;;;;4.83;2.50;;;25.50;54.10;;;;;;4989423;28;20447;-85
2024/01/29 20:07:04;;;;;;;6.93;3.00;;;25.50;54.10;;;;;;4997397;28;20519;-87
2024/01/29 20:09:31;;;;;;;8.00;2.23;;;25.50;54.10;;;;;;4997254;28;20488;-86
2024/01/29 20:11:59;;;;;;;3.33;2.50;;;25.50;54.20;;;;;;4999935;28;20493;-86
2024/01/29 20:14:27;;;;;;;6.77;2.80;;;25.50;54.30;;;;;;5002491;28;20522;-86
2024/01/29 20:16:55;;;;;;;2.70;2.00;;;25.50;54.20;;;;;;5003468;28;20436;-87
2024/01/29 20:19:21;;;;;;;4.33;2.83;;;25.50;54.20;;;;;;4997269;28;20946;-88
2024/01/29 20:21:48;;;;;;;4.63;2.53;;;25.50;54.20;;;;;;5002920;28;20420;-85
2024/01/29 20:24:15;;;;;;;3.50;1.93;;;25.50;54.20;;;;;;5010381;28;20443;-86
2024/01/29 20:26:42;;;;;;;5.20;2.63;;;25.50;54.30;;;;;;5013475;28;20430;-86
2024/01/29 20:29:10;;;;;;;4.60;2.57;;;25.50;54.30;;;;;;4997086;28;20440;-87
2024/01/29 20:31:37;;;;;;;4.20;2.43;;;25.50;54.30;;;;;;4997081;28;20858;-87
2024/01/29 20:34:04;;;;;;;6.73;1.97;;;25.50;54.30;;;;;;4996881;28;20445;-86
2024/01/29 20:36:31;;;;;;;3.00;2.03;;;25.60;54.40;;;;;;4996907;28;20435;-85
2024/01/29 20:38:58;;;;;;;3.30;2.30;;;25.50;54.30;;;;;;4996451;28;20534;-86
2024/01/29 20:41:25;;;;;;;3.50;2.30;;;25.50;54.30;;;;;;4996301;28;20444;-85
2024/01/29 20:43:52;;;;;;;4.43;2.03;;;25.50;54.40;;;;;;4996646;28;20943;-86
2024/01/29 20:46:20;;;;;;;2.87;2.20;;;25.50;54.40;;;;;;4996382;28;20442;-86
2024/01/29 20:48:47;;;;;;;2.97;2.10;;;25.50;54.30;;;;;;4996023;28;20451;-86
2024/01/29 20:51:14;;;;;;;4.47;2.07;;;25.50;54.20;;;;;;4995913;28;20484;-85
2024/01/29 20:53:41;;;;;;;5.83;2.30;;;25.50;54.20;;;;;;4996073;28;20452;-85
2024/01/29 20:56:08;;;;;;;6.43;2.63;;;25.70;54.30;;;;;;4995672;28;20547;-87
2024/01/29 20:58:35;;;;;;;3.50;2.33;;;25.60;54.30;;;;;;4996381;28;20467;-86
2024/01/29 21:01:02;;;;;;;3.57;2.70;;;25.60;54.20;;;;;;4994955;28;20451;-88
2024/01/29 21:03:30;;;;;;;2.83;2.27;;;25.60;54.30;;;;;;4996046;28;20455;-89
2024/01/29 21:05:56;;;;;;;2.80;2.10;;;25.60;54.30;;;;;;4996403;28;20473;-87
2024/01/29 21:08:23;;;;;;;4.80;2.40;;;25.60;54.30;;;;;;4996112;28;20432;-88
2024/01/29 21:10:50;;;;;;;4.27;2.10;;;25.60;54.40;;;;;;4996004;28;20438;-88
2024/01/29 21:13:17;;;;;;;6.50;2.07;;;25.60;54.40;;;;;;4996453;28;20530;-87
2024/01/29 21:15:44;;;;;;;3.77;2.47;;;25.60;54.50;;;;;;4996141;28;20442;-87
2024/01/29 21:18:10;;;;;;;3.00;2.43;;;25.60;54.40;;;;;;4996499;28;20440;-86
2024/01/29 21:20:41;;;;;;;3.50;2.23;;;25.60;54.40;;;;;;4996073;28;20543;-87
2024/01/29 21:23:08;;;;;;;3.47;2.17;;;25.60;53.60;;;;;;4999885;28;20451;-85
2024/01/29 21:25:35;;;;;;;7.33;2.30;;;25.60;54.00;;;;;;4996440;28;20944;-85
2024/01/29 21:28:03;;;;;;;4.00;2.67;;;25.60;54.20;;;;;;4996115;28;20460;-89
2024/01/29 21:30:30;;;;;;;2.80;1.97;;;25.60;54.10;;;;;;4997626;28;20440;-89
2024/01/29 21:36:22;;;;;;;4.90;1.93;;;25.60;54.10;;;;;;5001842;28;20451;-84
2024/01/29 21:38:53;;;;;;;3.20;2.00;;;25.60;54.20;;;;;;4998404;28;20444;-89
2024/01/29 21:41:21;;;;;;;8.40;1.93;;;25.60;54.10;;;;;;4997997;28;20432;-86
2024/01/29 21:43:48;;;;;;;2.60;1.70;;;25.60;54.10;;;;;;4997839;28;20460;-85
2024/01/29 21:46:16;;;;;;;3.63;2.10;;;25.60;54.00;;;;;;4979383;28;20947;-85
2024/01/29 21:48:42;;;;;;;2.33;1.73;;;25.60;54.10;;;;;;4997554;28;20949;-86
2024/01/29 21:51:10;;;;;;;2.10;1.90;;;25.60;54.00;;;;;;4999961;28;20489;-85
2024/01/29 21:53:38;;;;;;;3.30;2.40;;;25.60;54.00;;;;;;4981266;28;20456;-90
2024/01/29 21:56:05;;;;;;;3.07;1.97;;;25.60;54.00;;;;;;5011713;28;20486;-87
2024/01/29 21:58:45;;;;;;;2.50;2.17;;;25.60;54.00;;;;;;5015323;28;20470;-84
2024/01/29 22:01:13;;;;;;;3.60;2.20;;;25.60;53.90;;;;;;5017595;28;20530;-86
2024/01/29 22:03:41;;;;;;;2.83;1.87;;;25.60;54.00;;;;;;5017011;28;20546;-85
2024/01/29 22:06:08;;;;;;;3.40;2.30;;;25.60;54.00;;;;;;5016525;28;20439;-85
2024/01/29 22:08:35;;;;;;;2.93;1.83;;;25.60;53.90;;;;;;5015833;28;20475;-85
2024/01/29 22:11:05;;;;;;;2.57;2.30;;;25.60;53.90;;;;;;5016043;28;20435;-85
2024/01/29 22:13:34;;;;;;;2.03;1.73;;;25.60;53.90;;;;;;5015531;28;20455;-85
2024/01/29 22:16:01;;;;;;;2.97;1.90;;;25.60;53.90;;;;;;5015885;28;20539;-86
2024/01/29 22:18:27;;;;;;;2.00;1.50;;;25.70;53.90;;;;;;5015864;28;20507;-86
2024/01/29 22:20:54;;;;;;;2.27;1.83;;;25.60;53.90;;;;;;5015601;28;20473;-85
2024/01/29 22:23:21;;;;;;;2.40;1.90;;;25.60;53.80;;;;;;5016267;28;20438;-85
2024/01/29 22:25:50;;;;;;;5.47;2.20;;;25.50;53.80;;;;;;5016043;28;20439;-86
2024/01/29 22:28:19;;;;;;;2.40;2.13;;;25.50;53.80;;;;;;5016153;28;20442;-86
2024/01/29 22:30:45;;;;;;;4.60;2.00;;;25.50;53.80;;;;;;5016291;28;20466;-84
2024/01/29 22:33:12;;;;;;;3.63;1.70;;;25.50;53.70;;;;;;5014287;28;20505;-84
2024/01/29 22:35:39;;;;;;;2.30;1.77;;;25.50;54.30;;;;;;5014135;28;20936;-85
2024/01/29 22:38:06;;;;;;;2.77;2.40;;;25.50;53.70;;;;;;5014017;28;20450;-86
2024/01/29 22:40:33;;;;;;;3.17;1.97;;;25.50;53.80;;;;;;5013967;28;20929;-85
2024/01/29 22:43:00;;;;;;;4.30;2.20;;;25.50;53.80;;;;;;5013855;28;20471;-91
2024/01/29 22:45:28;;;;;;;2.70;2.17;;;25.40;53.70;;;;;;5014430;28;20461;-85
2024/01/29 22:47:59;;;;;;;2.30;1.83;;;25.40;53.70;;;;;;5014608;28;20436;-85
2024/01/29 22:50:25;;;;;;;2.67;2.40;;;25.40;53.70;;;;;;5013729;28;20451;-85
2024/01/29 22:52:53;;;;;;;3.83;2.23;;;25.40;53.60;;;;;;5013743;28;20492;-87
2024/01/29 22:55:21;;;;;;;2.43;1.70;;;25.40;53.60;;;;;;5013548;28;20475;-85
2024/01/29 22:57:47;;;;;;;3.13;1.60;;;25.40;53.70;;;;;;5013851;28;20450;-85
2024/01/29 23:00:20;;;;;;;1.90;1.60;;;25.40;53.70;;;;;;5013690;28;20927;-85
2024/01/29 23:02:48;;;;;;;2.17;1.97;;;25.40;53.70;;;;;;5013746;28;20857;-85
2024/01/29 23:05:15;;;;;;;3.83;2.50;;;25.40;53.70;;;;;;5013573;28;20933;-86
2024/01/29 23:07:42;;;;;;;2.80;2.23;;;25.40;53.70;;;;;;5013732;28;20443;-91
2024/01/29 23:10:09;;;;;;;3.00;2.10;;;25.30;53.70;;;;;;5013727;28;20534;-85
2024/01/29 23:12:36;;;;;;;2.63;2.13;;;25.30;53.70;;;;;;5013747;28;20495;-91
2024/01/29 23:15:03;;;;;;;2.30;1.80;;;25.30;53.70;;;;;;5013640;28;20439;-86
2024/01/29 23:17:30;;;;;;;2.17;1.80;;;25.30;53.70;;;;;;5013563;28;20451;-85
2024/01/29 23:19:58;;;;;;;2.20;1.90;;;25.40;53.70;;;;;;5013541;28;20463;-85
2024/01/29 23:22:25;;;;;;;2.67;2.10;;;25.30;53.70;;;;;;5013657;28;20474;-87
2024/01/29 23:24:52;;;;;;;2.43;1.83;;;25.20;53.70;;;;;;5016591;28;20435;-85
2024/01/29 23:27:20;;;;;;;2.13;1.80;;;25.20;53.70;;;;;;5017799;28;20439;-85
2024/01/29 23:29:47;;;;;;;2.60;2.20;;;25.30;53.70;;;;;;5017433;28;20505;-85
2024/01/29 23:32:14;;;;;;;2.30;1.97;;;25.20;53.70;;;;;;5017394;28;20482;-85
2024/01/29 23:34:41;;;;;;;2.63;1.83;;;25.20;53.70;;;;;;5017338;28;20447;-84
2024/01/29 23:37:20;;;;;;;2.43;1.87;;;25.20;53.70;;;;;;5017323;28;20443;-86
2024/01/29 23:39:47;;;;;;;2.20;1.80;;;25.20;53.70;;;;;;5019268;28;20510;-80
2024/01/29 23:42:14;;;;;;;2.47;2.07;;;25.30;53.70;;;;;;5031387;28;20512;-84
2024/01/29 23:44:40;;;;;;;2.17;1.80;;;25.20;53.70;;;;;;5030425;28;20514;-84
2024/01/29 23:47:07;;;;;;;3.27;2.37;;;25.20;53.70;;;;;;5018872;28;20810;-85
2024/01/29 23:49:34;;;;;;;2.27;1.70;;;25.20;53.70;;;;;;5017245;28;20463;-85
2024/01/29 23:52:01;;;;;;;2.90;2.27;;;25.10;53.60;;;;;;5017041;28;20509;-86
2024/01/29 23:54:29;;;;;;;2.30;1.47;;;25.10;53.60;;;;;;5017139;28;20445;-86
2024/01/29 23:56:56;;;;;;;2.37;1.77;;;25.10;53.70;;;;;;5017079;28;20928;-91
2024/01/29 23:59:23;;;;;;;2.33;1.80;;;25.10;53.60;;;;;;5017057;28;20443;-85
